Time;durP1;ratioP1;P1;durP2;ratioP2;P2;SDS_P1;SDS_P2;PMS_P1;PMS_P2;Temp;Humidity;BMP_temperature;BMP_pressure;BME280_temperature;BME280_humidity;BME280_pressure;Samples;Min_cycle;Max_cycle;Signal;HPM_P1;HPM_P2
2024/01/15 00:00:34;;;;;;;6.60;3.30;;;;;;;0.98;100.00;100362.84;5043075;28;20029;-65
2024/01/15 00:02:59;;;;;;;4.63;3.60;;;;;;;0.95;100.00;100358.69;5042869;28;20037;-65
2024/01/15 00:05:24;;;;;;;6.23;3.50;;;;;;;0.93;100.00;100357.97;5043983;28;20494;-65
2024/01/15 00:07:49;;;;;;;5.83;3.70;;;;;;;0.86;100.00;100349.75;5048557;28;20035;-65
2024/01/15 00:10:15;;;;;;;7.27;3.70;;;;;;;0.85;100.00;100349.88;5040097;28;20037;-65
2024/01/15 00:12:40;;;;;;;8.60;4.10;;;;;;;0.81;100.00;100346.69;5046583;28;20044;-65
2024/01/15 00:15:06;;;;;;;5.67;3.70;;;;;;;0.81;100.00;100343.22;5047214;28;20040;-65
2024/01/15 00:17:31;;;;;;;6.00;4.00;;;;;;;0.79;100.00;100337.31;5042867;28;20039;-65
2024/01/15 00:19:56;;;;;;;6.73;3.83;;;;;;;0.76;100.00;100333.16;5035591;28;20029;-65
2024/01/15 00:22:25;;;;;;;7.27;4.00;;;;;;;0.71;100.00;100334.47;5039208;28;20544;-65
2024/01/15 00:24:50;;;;;;;7.37;4.33;;;;;;;0.69;100.00;100326.75;5043244;28;20028;-65
2024/01/15 00:27:15;;;;;;;6.33;4.00;;;;;;;0.67;100.00;100333.88;5043072;28;20437;-65
2024/01/15 00:29:41;;;;;;;8.00;3.90;;;;;;;0.65;100.00;100333.16;5041779;28;20043;-65
2024/01/15 00:32:06;;;;;;;9.50;3.80;;;;;;;0.63;100.00;100327.22;5041093;28;20124;-65
2024/01/15 00:34:31;;;;;;;10.00;3.80;;;;;;;0.61;100.00;100329.13;5043849;28;20514;-65
2024/01/15 00:36:57;;;;;;;9.30;4.10;;;;;;;0.55;100.00;100321.75;5047459;28;20449;-65
2024/01/15 00:39:22;;;;;;;11.33;4.20;;;;;;;0.53;100.00;100323.66;5041812;28;20029;-65
2024/01/15 00:41:47;;;;;;;6.57;3.80;;;;;;;0.49;100.00;100317.84;5044098;28;20553;-65
2024/01/15 00:44:13;;;;;;;15.00;4.07;;;;;;;0.47;100.00;100321.53;5038854;28;20113;-65
2024/01/15 00:46:45;;;;;;;7.53;4.00;;;;;;;0.45;100.00;100312.97;5043060;28;20734;-65
2024/01/15 00:49:11;;;;;;;10.20;4.20;;;;;;;0.42;100.00;100315.81;5041800;28;20175;-65
2024/01/15 00:51:37;;;;;;;10.27;3.77;;;;;;;0.36;100.00;100311.91;5041612;28;20102;-65
2024/01/15 00:54:02;;;;;;;9.47;3.93;;;;;;;0.31;100.00;100301.00;5040414;28;20040;-65
2024/01/15 00:56:27;;;;;;;8.13;3.63;;;;;;;0.27;100.00;100300.38;5042752;28;20053;-65
2024/01/15 00:58:52;;;;;;;10.50;3.40;;;;;;;0.25;100.00;100306.66;5044008;28;20069;-65
2024/01/15 01:01:18;;;;;;;11.47;3.37;;;;;;;0.24;100.00;100305.84;5045414;28;20033;-66
2024/01/15 01:03:43;;;;;;;7.27;3.17;;;;;;;0.21;100.00;100302.63;5041172;28;20028;-65
2024/01/15 01:06:09;;;;;;;8.73;3.47;;;;;;;0.18;100.00;100302.88;5047018;28;20039;-65
2024/01/15 01:08:34;;;;;;;9.83;2.90;;;;;;;0.19;100.00;100300.13;5044955;28;20043;-65
2024/01/15 01:11:00;;;;;;;9.27;3.03;;;;;;;0.21;100.00;100302.63;5044107;28;20513;-65
2024/01/15 01:13:25;;;;;;;11.00;3.13;;;;;;;0.18;100.00;100295.88;5036997;28;20509;-65
2024/01/15 01:15:50;;;;;;;8.33;3.30;;;;;;;0.14;100.00;100288.38;5040352;28;20102;-65
2024/01/15 01:18:16;;;;;;;7.70;3.17;;;;;;;0.14;100.00;100294.44;5040471;28;20155;-65
2024/01/15 01:20:41;;;;;;;7.57;2.90;;;;;;;0.14;100.00;100284.00;5053864;28;20040;-65
2024/01/15 01:23:06;;;;;;;14.33;3.20;;;;;;;0.16;100.00;100287.31;5042942;28;20498;-65
2024/01/15 01:25:32;;;;;;;8.30;2.70;;;;;;;0.09;100.00;100278.31;5045869;28;20477;-65
2024/01/15 01:27:57;;;;;;;12.83;3.03;;;;;;;0.16;100.00;100283.88;5048068;28;20039;-65
2024/01/15 01:30:22;;;;;;;8.53;2.80;;;;;;;0.16;100.00;100292.53;5036927;28;20407;-65
2024/01/15 01:32:48;;;;;;;11.87;3.60;;;;;;;0.16;100.00;100292.53;5042931;28;20415;-65
2024/01/15 01:35:14;;;;;;;14.30;3.10;;;;;;;0.18;100.00;100298.47;5042143;28;20032;-65
2024/01/15 01:37:39;;;;;;;7.30;2.50;;;;;;;0.17;100.00;100291.59;5043564;28;20038;-65
2024/01/15 01:40:05;;;;;;;11.80;2.67;;;;;;;0.20;100.00;100293.97;5045081;28;20032;-65
2024/01/15 01:42:30;;;;;;;13.17;2.70;;;;;;;0.18;100.00;100295.03;5040021;28;20032;-65
2024/01/15 01:44:56;;;;;;;11.33;2.60;;;;;;;0.17;100.00;100298.59;5038258;28;20067;-65
2024/01/15 01:47:21;;;;;;;11.40;2.80;;;;;;;0.16;100.00;100305.59;5045432;28;20033;-65
2024/01/15 01:49:47;;;;;;;8.83;2.20;;;;;;;0.12;100.00;100301.56;5037188;28;20045;-65
2024/01/15 01:52:13;;;;;;;8.90;2.30;;;;;;;0.10;100.00;100300.84;5036580;28;20104;-65
2024/01/15 01:54:40;;;;;;;13.43;2.20;;;;;;;0.04;100.00;100303.09;5036475;28;20478;-65
2024/01/15 01:57:06;;;;;;;9.00;2.40;;;;;;;0.01;100.00;100290.28;5038479;28;20021;-65
2024/01/15 01:59:32;;;;;;;12.60;2.67;;;;;;;-0.01;100.00;100295.59;5037050;28;20051;-65
2024/01/15 02:02:00;;;;;;;8.03;2.30;;;;;;;0.04;100.00;100292.66;5039961;28;20061;-65
2024/01/15 02:04:26;;;;;;;8.90;2.30;;;;;;;0.04;100.00;100287.44;5032724;28;20039;-65
2024/01/15 02:06:52;;;;;;;8.83;2.23;;;;;;;0.09;100.00;100288.75;5035144;28;20037;-65
2024/01/15 02:09:20;;;;;;;12.00;2.80;;;;;;;0.18;100.00;100300.25;5035602;28;20026;-65
2024/01/15 02:11:48;;;;;;;12.53;2.57;;;;;;;0.17;100.00;100288.97;5034717;28;20028;-65
2024/01/15 02:14:14;;;;;;;13.63;2.73;;;;;;;0.06;100.00;100280.31;5036144;28;20708;-65
2024/01/15 02:16:40;;;;;;;10.60;2.53;;;;;;;0.11;100.00;100289.47;5032584;28;20028;-65
2024/01/15 02:19:05;;;;;;;5.90;2.13;;;;;;;0.09;100.00;100275.69;5036055;28;20486;-65
2024/01/15 02:21:31;;;;;;;9.87;2.30;;;;;;;0.05;100.00;100282.09;5036116;28;20054;-65
2024/01/15 02:23:57;;;;;;;9.30;2.67;;;;;;;-0.01;100.00;100280.75;5039959;28;20052;-65
2024/01/15 02:26:23;;;;;;;7.83;2.13;;;;;;;-0.01;100.00;100275.53;5035930;28;20888;-65
2024/01/15 02:28:49;;;;;;;9.97;2.20;;;;;;;-0.05;100.00;100278.50;5040335;28;20029;-65
2024/01/15 02:31:14;;;;;;;10.60;2.30;;;;;;;0.01;100.00;100279.84;5036346;28;20031;-65
2024/01/15 02:33:42;;;;;;;8.20;2.30;;;;;;;0.01;100.00;100274.63;5037604;28;20025;-65
2024/01/15 02:36:07;;;;;;;9.77;2.50;;;;;;;-0.01;100.00;100279.94;5046470;28;20041;-65
2024/01/15 02:38:32;;;;;;;12.83;3.30;;;;;;;-0.02;100.00;100278.28;5035989;28;20029;-64
2024/01/15 02:40:58;;;;;;;12.60;2.50;;;;;;;-0.01;100.00;100285.97;5035620;28;20033;-65
2024/01/15 02:43:23;;;;;;;8.83;2.20;;;;;;;-0.03;100.00;100279.22;5042008;28;20037;-65
2024/01/15 02:45:49;;;;;;;9.50;1.93;;;;;;;-0.04;100.00;100280.16;5042898;28;20105;-64
2024/01/15 02:48:14;;;;;;;13.47;2.37;;;;;;;-0.03;100.00;100287.06;5039429;28;20033;-65
2024/01/15 02:50:40;;;;;;;14.50;2.50;;;;;;;-0.01;100.00;100279.94;5052294;28;20151;-64
2024/01/15 02:53:05;;;;;;;7.97;1.97;;;;;;;-0.02;100.00;100267.84;5050164;28;20712;-64
2024/01/15 02:55:30;;;;;;;11.30;2.20;;;;;;;-0.06;100.00;100277.69;5052452;28;20036;-64
2024/01/15 02:57:56;;;;;;;9.57;2.50;;;;;;;-0.14;100.00;100271.38;5046278;28;20028;-64
2024/01/15 03:00:21;;;;;;;9.87;2.23;;;;;;;-0.17;100.00;100277.66;5047774;28;20108;-64
2024/01/15 03:02:48;;;;;;;10.17;2.00;;;;;;;-0.17;100.00;100279.44;5050809;28;20112;-64
2024/01/15 03:05:13;;;;;;;10.97;2.10;;;;;;;-0.21;100.00;100283.25;5046007;28;20032;-64
2024/01/15 03:07:38;;;;;;;16.00;2.30;;;;;;;-0.25;100.00;100279.19;5051382;28;20107;-64
2024/01/15 03:10:05;;;;;;;8.87;2.13;;;;;;;-0.23;100.00;100279.91;5046573;28;20021;-64
2024/01/15 03:12:31;;;;;;;9.87;2.07;;;;;;;-0.26;100.00;100274.94;5047988;28;20029;-64
2024/01/15 03:14:57;;;;;;;14.90;2.10;;;;;;;-0.26;100.00;100278.38;5042941;28;20063;-64
2024/01/15 03:17:22;;;;;;;13.70;2.23;;;;;;;-0.25;100.00;100267.00;5048107;28;20474;-64
2024/01/15 03:19:49;;;;;;;9.90;2.17;;;;;;;-0.24;100.00;100266.03;5042807;28;20036;-64
2024/01/15 03:22:15;;;;;;;6.90;1.90;;;;;;;-0.26;100.00;100274.94;5043588;28;20029;-64
2024/01/15 03:24:40;;;;;;;3.67;1.70;;;;;;;-0.26;100.00;100274.94;5037275;28;20033;-64
2024/01/15 03:27:05;;;;;;;9.23;1.97;;;;;;;-0.27;100.00;100278.50;5041034;28;20826;-64
2024/01/15 03:29:31;;;;;;;8.50;2.13;;;;;;;-0.31;100.00;100265.66;5044660;28;20028;-64
2024/01/15 03:31:56;;;;;;;6.67;1.80;;;;;;;-0.31;100.00;100272.63;5046255;28;20512;-64
2024/01/15 03:34:21;;;;;;;13.13;1.67;;;;;;;-0.31;100.00;100272.63;5044570;28;20486;-64
2024/01/15 03:36:47;;;;;;;11.07;2.00;;;;;;;-0.32;100.00;100271.81;5053022;28;20486;-64
2024/01/15 03:39:12;;;;;;;11.13;2.30;;;;;;;-0.32;100.00;100265.75;5035224;28;20029;-64
2024/01/15 03:41:37;;;;;;;10.70;2.07;;;;;;;-0.34;100.00;100270.25;5042967;28;20032;-64
2024/01/15 03:44:03;;;;;;;9.13;2.00;;;;;;;-0.36;100.00;100259.94;5036074;28;20036;-64
2024/01/15 03:46:28;;;;;;;9.67;2.13;;;;;;;-0.35;100.00;100266.81;5034484;28;20128;-65
2024/01/15 03:48:54;;;;;;;13.33;2.83;;;;;;;-0.34;100.00;100265.06;5044635;28;20585;-64
2024/01/15 03:51:20;;;;;;;10.03;2.60;;;;;;;-0.34;100.00;100267.66;5035278;28;20122;-64
2024/01/15 03:53:45;;;;;;;8.27;2.13;;;;;;;-0.34;100.00;100263.28;5040661;28;20073;-65
2024/01/15 03:56:11;;;;;;;9.37;2.47;;;;;;;-0.35;100.00;100260.78;5035645;28;20138;-64
2024/01/15 03:58:36;;;;;;;10.23;2.40;;;;;;;-0.33;100.00;100259.72;5036740;28;20033;-64
2024/01/15 04:01:01;;;;;;;11.37;2.60;;;;;;;-0.27;100.00;100248.00;5038109;28;20068;-64
2024/01/15 04:03:27;;;;;;;13.80;2.67;;;;;;;-0.22;100.00;100240.66;5034654;28;20104;-64
2024/01/15 04:05:52;;;;;;;8.93;2.17;;;;;;;-0.20;100.00;100237.94;5034589;28;20482;-64
2024/01/15 04:08:17;;;;;;;15.20;2.37;;;;;;;-0.18;100.00;100239.47;5036977;28;20097;-64
2024/01/15 04:10:43;;;;;;;9.07;2.20;;;;;;;-0.12;100.00;100246.00;5035499;28;20021;-64
2024/01/15 04:13:08;;;;;;;10.17;2.93;;;;;;;-0.03;100.00;100240.06;5035136;28;20425;-64
2024/01/15 04:15:33;;;;;;;11.87;2.30;;;;;;;0.03;100.00;100241.41;5040817;28;20037;-64
2024/01/15 04:17:59;;;;;;;11.77;2.37;;;;;;;0.07;100.00;100237.59;5035369;28;20064;-64
2024/01/15 04:20:24;;;;;;;13.17;2.27;;;;;;;0.11;100.00;100245.06;5035020;28;20518;-64
2024/01/15 04:22:49;;;;;;;12.23;2.17;;;;;;;0.16;100.00;100239.50;5036285;28;20041;-64
2024/01/15 04:25:15;;;;;;;10.27;2.67;;;;;;;0.16;100.00;100232.50;5034732;28;20041;-64
2024/01/15 04:27:40;;;;;;;12.47;2.53;;;;;;;0.20;100.00;100223.47;5035043;28;20040;-64
2024/01/15 04:30:06;;;;;;;13.53;2.53;;;;;;;0.22;100.00;100231.19;5037295;28;20037;-64
2024/01/15 04:32:31;;;;;;;7.50;2.57;;;;;;;0.26;100.00;100233.44;5034273;28;20029;-65
2024/01/15 04:34:57;;;;;;;14.43;2.63;;;;;;;0.29;100.00;100237.59;5039479;28;20033;-64
2024/01/15 04:37:22;;;;;;;9.97;2.23;;;;;;;0.31;100.00;100227.88;5047692;28;20029;-64
2024/01/15 04:39:47;;;;;;;14.30;2.50;;;;;;;0.30;100.00;100216.59;5040766;28;20032;-64
2024/01/15 04:42:13;;;;;;;7.50;2.23;;;;;;;0.32;100.00;100215.66;5037232;28;20199;-64
2024/01/15 04:44:38;;;;;;;7.60;2.07;;;;;;;0.30;100.00;100215.78;5036579;28;20025;-64
2024/01/15 04:47:03;;;;;;;14.97;2.37;;;;;;;0.27;100.00;100219.41;5048704;28;20089;-64
2024/01/15 04:49:29;;;;;;;12.83;2.27;;;;;;;0.26;100.00;100220.38;5039805;28;20034;-64
2024/01/15 04:51:55;;;;;;;9.47;2.03;;;;;;;0.24;100.00;100224.06;5038717;28;20017;-64
2024/01/15 04:54:20;;;;;;;9.63;2.40;;;;;;;0.26;100.00;100216.94;5040350;28;20029;-64
2024/01/15 04:56:46;;;;;;;8.77;1.97;;;;;;;0.23;100.00;100212.78;5049716;28;20025;-64
2024/01/15 04:59:11;;;;;;;5.00;1.60;;;;;;;0.25;100.00;100220.50;5043477;28;20083;-64
2024/01/15 05:01:36;;;;;;;6.27;1.73;;;;;;;0.25;100.00;100229.16;5028096;28;20038;-64
2024/01/15 05:04:02;;;;;;;5.23;1.70;;;;;;;0.23;100.00;100227.63;5027770;28;20029;-64
2024/01/15 05:06:28;;;;;;;3.17;1.27;;;;;;;0.23;100.00;100223.22;5032432;28;20025;-64
2024/01/15 05:08:53;;;;;;;4.70;1.40;;;;;;;0.23;100.00;100217.19;5035537;28;20109;-64
2024/01/15 05:11:18;;;;;;;4.80;1.30;;;;;;;0.25;100.00;100220.50;5036499;28;20028;-64
2024/01/15 05:13:44;;;;;;;4.17;1.27;;;;;;;0.25;100.00;100212.66;5042564;28;20056;-64
2024/01/15 05:16:09;;;;;;;5.00;1.40;;;;;;;0.28;100.00;100213.25;5038124;28;20380;-64
2024/01/15 05:18:36;;;;;;;3.47;1.00;;;;;;;0.33;100.00;100209.47;5033647;28;20102;-64
2024/01/15 05:21:02;;;;;;;7.13;1.40;;;;;;;0.27;100.00;100195.09;5034732;28;20108;-64
2024/01/15 05:23:28;;;;;;;4.17;1.10;;;;;;;0.32;100.00;100203.41;5035346;28;20652;-64
2024/01/15 05:25:53;;;;;;;3.80;1.20;;;;;;;0.36;100.00;100206.63;5046887;28;20021;-64
2024/01/15 05:28:18;;;;;;;5.27;1.40;;;;;;;0.37;100.00;100197.84;5037928;28;20670;-64
2024/01/15 05:30:44;;;;;;;4.23;1.20;;;;;;;0.41;100.00;100197.47;5038743;28;20025;-64
2024/01/15 05:33:09;;;;;;;5.10;1.00;;;;;;;0.39;100.00;100194.16;5037834;28;20036;-64
2024/01/15 05:35:34;;;;;;;6.60;1.20;;;;;;;0.41;100.00;100194.03;5039872;28;20027;-64
2024/01/15 05:38:00;;;;;;;5.63;1.50;;;;;;;0.42;100.00;100193.06;5034047;28;20036;-65
2024/01/15 05:40:25;;;;;;;6.03;1.60;;;;;;;0.42;100.00;100195.69;5049785;28;20063;-64
2024/01/15 05:42:51;;;;;;;5.40;1.80;;;;;;;0.40;100.00;100193.19;5053626;28;20451;-64
2024/01/15 05:45:17;;;;;;;4.57;2.00;;;;;;;0.44;100.00;100201.59;5044141;28;20514;-64
2024/01/15 05:47:43;;;;;;;3.33;1.90;;;;;;;0.38;100.00;100195.09;5036248;28;20059;-64
2024/01/15 05:50:09;;;;;;;4.37;2.13;;;;;;;0.37;100.00;100209.09;5036535;28;20037;-64
2024/01/15 05:52:35;;;;;;;3.33;2.27;;;;;;;0.30;100.00;100193.09;5038996;28;20097;-64
2024/01/15 05:55:00;;;;;;;5.13;2.70;;;;;;;0.27;100.00;100206.38;5039339;28;20033;-66
2024/01/15 05:57:25;;;;;;;4.17;2.50;;;;;;;0.23;100.00;100210.16;5040954;28;20025;-64
2024/01/15 05:59:51;;;;;;;4.43;2.50;;;;;;;0.18;100.00;100194.03;5051612;28;20089;-65
2024/01/15 06:02:16;;;;;;;6.57;2.87;;;;;;;0.10;100.00;100199.03;5042155;28;20121;-65
2024/01/15 06:04:42;;;;;;;5.63;2.93;;;;;;;0.06;100.00;100194.19;5039780;28;20035;-65
2024/01/15 06:07:07;;;;;;;5.33;3.03;;;;;;;-0.02;100.00;100184.31;5038850;28;20040;-64
2024/01/15 06:09:32;;;;;;;5.53;3.40;;;;;;;-0.07;100.00;100182.06;5041162;28;20040;-64
2024/01/15 06:11:58;;;;;;;6.03;3.47;;;;;;;-0.11;100.00;100180.66;5032217;28;20866;-65
2024/01/15 06:14:23;;;;;;;5.20;3.37;;;;;;;-0.14;100.00;100180.88;5034604;28;20041;-64
2024/01/15 06:16:49;;;;;;;6.47;3.33;;;;;;;-0.14;100.00;100187.88;5035095;28;20112;-65
2024/01/15 06:19:14;;;;;;;8.03;4.00;;;;;;;-0.15;100.00;100178.41;5037245;28;20492;-65
2024/01/15 06:21:39;;;;;;;7.03;3.67;;;;;;;-0.15;100.00;100175.78;5034209;28;20053;-64
2024/01/15 06:24:05;;;;;;;8.20;4.60;;;;;;;-0.17;100.00;100175.06;5035293;28;20032;-65
2024/01/15 06:26:30;;;;;;;7.37;4.87;;;;;;;-0.21;100.00;100168.44;5033326;28;20035;-64
2024/01/15 06:28:56;;;;;;;7.73;4.77;;;;;;;-0.21;100.00;100171.03;5034211;28;20048;-64
2024/01/15 06:31:21;;;;;;;9.67;4.97;;;;;;;-0.20;100.00;100154.44;5034332;28;20506;-65
2024/01/15 06:33:48;;;;;;;8.73;5.30;;;;;;;-0.22;100.00;100169.38;5036985;28;20086;-64
2024/01/15 06:36:14;;;;;;;9.33;5.67;;;;;;;-0.20;100.00;100173.53;5038563;28;20223;-64
2024/01/15 06:38:39;;;;;;;11.37;5.43;;;;;;;-0.15;100.00;100175.78;5043961;28;20070;-64
2024/01/15 06:41:05;;;;;;;12.13;6.33;;;;;;;-0.14;100.00;100185.28;5052663;28;20076;-64
2024/01/15 06:43:30;;;;;;;16.07;6.43;;;;;;;-0.17;100.00;100172.47;5044040;28;20452;-64
2024/01/15 06:45:55;;;;;;;12.97;6.33;;;;;;;-0.17;100.00;100169.84;5037091;28;20045;-64
2024/01/15 06:48:21;;;;;;;11.13;6.87;;;;;;;-0.14;100.00;100173.06;5042673;28;20562;-64
2024/01/15 06:50:46;;;;;;;13.90;7.57;;;;;;;-0.15;100.00;100176.63;5040571;28;20074;-65
2024/01/15 06:53:11;;;;;;;12.83;7.27;;;;;;;-0.12;100.00;100178.16;5031404;28;20036;-64
2024/01/15 06:55:38;;;;;;;14.73;9.40;;;;;;;-0.11;100.00;100172.81;5040794;28;20028;-64
2024/01/15 06:58:03;;;;;;;14.17;8.17;;;;;;;-0.07;100.00;100176.84;5059099;28;20036;-65
2024/01/15 07:00:29;;;;;;;16.43;7.80;;;;;;;-0.03;100.00;100183.47;5043923;28;20047;-64
2024/01/15 07:02:54;;;;;;;12.40;7.17;;;;;;;-0.06;100.00;100178.50;5042688;28;20025;-64
2024/01/15 07:05:23;;;;;;;9.90;6.47;;;;;;;-0.07;100.00;100183.84;5040501;28;20056;-65
2024/01/15 07:07:48;;;;;;;11.20;6.68;;;;;;;-0.09;100.00;100178.75;5053224;28;20029;-65
2024/01/15 07:10:14;;;;;;;10.60;6.33;;;;;;;-0.08;100.00;100174.34;5039772;28;20095;-65
2024/01/15 07:12:42;;;;;;;10.33;6.63;;;;;;;-0.09;100.00;100162.25;5048382;28;20025;-64
2024/01/15 07:15:08;;;;;;;9.93;6.20;;;;;;;-0.08;100.00;100175.19;5034852;28;20025;-65
2024/01/15 07:17:34;;;;;;;10.83;5.90;;;;;;;-0.07;100.00;100165.56;5033895;28;20642;-65
2024/01/15 07:19:59;;;;;;;9.40;6.60;;;;;;;-0.07;100.00;100170.78;5033329;28;20029;-65
2024/01/15 07:22:24;;;;;;;9.30;6.10;;;;;;;-0.06;100.00;100177.69;5031888;28;20060;-65
2024/01/15 07:24:50;;;;;;;8.63;5.97;;;;;;;-0.09;100.00;100181.34;5030652;28;20468;-64
2024/01/15 07:27:15;;;;;;;8.07;5.60;;;;;;;-0.10;100.00;100190.13;5038264;28;20047;-64
2024/01/15 07:29:42;;;;;;;9.67;5.60;;;;;;;-0.12;100.00;100193.81;5037018;28;20024;-64
2024/01/15 07:32:07;;;;;;;7.37;4.83;;;;;;;-0.16;100.00;100189.78;5033025;28;20048;-64
2024/01/15 07:34:33;;;;;;;7.93;4.20;;;;;;;-0.13;100.00;100184.31;5038859;28;20124;-65
2024/01/15 07:36:58;;;;;;;8.13;3.90;;;;;;;-0.13;100.00;100189.53;5041127;28;20398;-64
2024/01/15 07:39:24;;;;;;;7.00;4.20;;;;;;;-0.10;100.00;100186.69;5025925;28;20958;-65
2024/01/15 07:41:50;;;;;;;6.63;4.37;;;;;;;-0.08;100.00;100182.19;5041541;28;20036;-65
2024/01/15 07:44:15;;;;;;;7.73;4.00;;;;;;;-0.10;100.00;100191.91;5039655;28;20043;-65
2024/01/15 07:46:44;;;;;;;7.20;4.53;;;;;;;-0.11;100.00;100185.88;5031611;28;20075;-65
2024/01/15 07:49:10;;;;;;;6.22;4.75;;;;;;;-0.12;100.00;100194.66;5038591;28;20032;-65
2024/01/15 07:51:35;;;;;;;7.70;4.73;;;;;;;-0.14;100.00;100191.31;5040797;28;20474;-64
2024/01/15 07:54:00;;;;;;;6.43;4.93;;;;;;;-0.12;100.00;100186.81;5036196;28;20025;-64
2024/01/15 07:56:27;;;;;;;6.33;4.83;;;;;;;-0.14;100.00;100198.31;5041229;28;20441;-65
2024/01/15 07:58:52;;;;;;;7.37;5.07;;;;;;;-0.10;100.00;100211.00;5040093;28;20029;-64
2024/01/15 08:01:17;;;;;;;7.90;5.27;;;;;;;-0.10;100.00;100208.41;5043816;28;20483;-64
2024/01/15 08:03:43;;;;;;;8.87;5.10;;;;;;;-0.08;100.00;100213.50;5049227;28;20116;-64
2024/01/15 08:06:09;;;;;;;7.37;5.13;;;;;;;-0.07;100.00;100218.59;5047094;28;20040;-64
2024/01/15 08:08:35;;;;;;;6.67;5.00;;;;;;;-0.03;100.00;100213.97;5041278;28;20056;-65
2024/01/15 08:11:00;;;;;;;7.77;4.90;;;;;;;-0.06;100.00;100209.81;5037895;28;20147;-65
2024/01/15 08:13:26;;;;;;;7.20;5.03;;;;;;;-0.08;100.00;100221.34;5039376;28;20479;-64
2024/01/15 08:15:52;;;;;;;9.23;4.93;;;;;;;-0.10;100.00;100226.66;5040832;28;20135;-64
2024/01/15 08:18:17;;;;;;;7.93;4.83;;;;;;;-0.10;100.00;100224.06;5044926;28;20209;-65
2024/01/15 08:20:42;;;;;;;5.77;3.93;;;;;;;-0.13;100.00;100221.69;5038217;28;20090;-65
2024/01/15 08:23:08;;;;;;;6.20;4.07;;;;;;;-0.17;100.00;100219.44;5041123;28;20310;-64
2024/01/15 08:25:33;;;;;;;4.43;3.57;;;;;;;-0.24;100.00;100215.63;5034853;28;20521;-65
2024/01/15 08:27:59;;;;;;;4.80;3.80;;;;;;;-0.24;100.00;100218.25;5039711;28;20043;-65
2024/01/15 08:30:27;;;;;;;5.60;4.00;;;;;;;-0.25;100.00;100221.81;5041602;28;20803;-64
2024/01/15 08:32:53;;;;;;;5.10;4.07;;;;;;;-0.25;100.00;100221.81;5035614;28;20025;-65
2024/01/15 08:35:22;;;;;;;5.97;4.13;;;;;;;-0.24;100.00;100219.06;5033773;28;20025;-66
2024/01/15 08:37:50;;;;;;;9.02;5.40;;;;;;;-0.22;100.00;100216.34;5044412;28;20060;-64
2024/01/15 08:40:16;;;;;;;6.13;5.00;;;;;;;-0.22;100.00;100211.13;5045676;28;20048;-65
2024/01/15 08:42:41;;;;;;;6.50;5.37;;;;;;;-0.19;100.00;100219.56;5041368;28;20057;-64
2024/01/15 08:45:07;;;;;;;8.33;6.40;;;;;;;-0.18;100.00;100223.00;5041688;28;20121;-65
2024/01/15 08:47:32;;;;;;;7.40;6.60;;;;;;;-0.20;100.00;100225.72;5050765;28;20491;-64
2024/01/15 08:49:58;;;;;;;9.33;6.57;;;;;;;-0.18;100.00;100223.00;5049594;28;20023;-65
2024/01/15 08:52:24;;;;;;;8.83;6.97;;;;;;;-0.18;100.00;100213.38;5041236;28;20035;-65
2024/01/15 08:54:49;;;;;;;9.70;6.67;;;;;;;-0.18;100.00;100220.38;5054424;28;20025;-65
2024/01/15 08:57:14;;;;;;;8.27;6.33;;;;;;;-0.17;100.00;100215.03;5050801;28;20032;-64
2024/01/15 08:59:41;;;;;;;8.37;6.70;;;;;;;-0.16;100.00;100216.72;5048631;28;20034;-65
2024/01/15 09:02:07;;;;;;;8.20;6.60;;;;;;;-0.14;100.00;100216.59;5048121;28;20043;-64
2024/01/15 09:04:32;;;;;;;10.60;7.13;;;;;;;-0.11;100.00;100221.56;5045521;28;20156;-65
2024/01/15 09:06:58;;;;;;;10.57;7.43;;;;;;;-0.07;100.00;100225.59;5046506;28;20020;-65
2024/01/15 09:09:23;;;;;;;11.40;7.60;;;;;;;-0.04;100.00;100227.97;5044787;28;20063;-64
2024/01/15 09:11:48;;;;;;;8.73;7.07;;;;;;;-0.01;100.00;100219.91;5052199;28;20025;-64
2024/01/15 09:14:14;;;;;;;10.03;7.60;;;;;;;0.02;100.00;100224.91;5050550;28;20405;-65
2024/01/15 09:16:39;;;;;;;10.90;7.73;;;;;;;0.04;100.00;100215.19;5044307;28;20036;-65
2024/01/15 09:19:05;;;;;;;9.57;8.10;;;;;;;0.07;100.00;100217.56;5042221;28;20051;-64
2024/01/15 09:21:30;;;;;;;13.63;7.70;;;;;;;0.07;100.00;100220.16;5044162;28;20032;-65
2024/01/15 09:23:55;;;;;;;11.10;5.77;;;;;;;0.09;100.00;100210.44;5051234;28;20044;-66
2024/01/15 09:26:21;;;;;;;7.47;5.93;;;;;;;0.12;100.00;100210.19;5048097;28;20468;-64
2024/01/15 09:28:46;;;;;;;12.50;5.43;;;;;;;0.15;100.00;100212.56;5037195;28;20127;-64
2024/01/15 09:31:11;;;;;;;9.23;5.13;;;;;;;0.12;100.00;100218.03;5047948;28;20056;-65
2024/01/15 09:33:37;;;;;;;11.33;4.33;;;;;;;0.10;100.00;100214.69;5036894;28;20172;-64
2024/01/15 09:36:06;;;;;;;10.17;3.13;;;;;;;0.12;100.00;100223.25;5040465;28;20037;-64
2024/01/15 09:38:31;;;;;;;5.40;2.95;;;;;;;0.13;100.00;100213.63;5038636;28;20028;-64
2024/01/15 09:40:57;;;;;;;8.83;2.83;;;;;;;0.18;100.00;100217.53;5037040;28;20513;-64
2024/01/15 09:43:23;;;;;;;7.23;2.40;;;;;;;0.25;100.00;100223.09;5042429;28;20530;-65
2024/01/15 09:45:50;;;;;;;6.90;2.10;;;;;;;0.34;100.00;100232.03;5041860;28;20106;-65
2024/01/15 09:48:16;;;;;;;6.77;1.50;;;;;;;0.35;100.00;100231.06;5041338;28;20062;-64
2024/01/15 09:50:42;;;;;;;6.33;1.43;;;;;;;0.37;100.00;100226.56;5041592;28;20017;-64
2024/01/15 09:53:09;;;;;;;6.37;1.60;;;;;;;0.37;100.00;100231.78;5036790;28;20031;-65
2024/01/15 09:55:38;;;;;;;5.63;1.57;;;;;;;0.37;100.00;100242.22;5045898;28;20029;-64
2024/01/15 09:58:03;;;;;;;8.10;1.70;;;;;;;0.39;100.00;100235.09;5048681;28;20073;-64
2024/01/15 10:00:31;;;;;;;6.97;1.67;;;;;;;0.50;100.00;100238.53;5043807;28;20024;-64
2024/01/15 10:02:56;;;;;;;6.60;1.60;;;;;;;0.54;100.00;100239.09;5039128;28;20040;-64
2024/01/15 10:05:22;;;;;;;7.97;1.57;;;;;;;0.54;100.00;100239.94;5036988;28;20033;-64
2024/01/15 10:07:49;;;;;;;8.03;1.70;;;;;;;0.57;100.00;100234.47;5044815;28;20128;-65
2024/01/15 10:10:15;;;;;;;8.40;2.33;;;;;;;0.63;100.00;100237.56;5039673;28;20106;-64
2024/01/15 10:12:41;;;;;;;6.60;2.27;;;;;;;0.68;100.00;100243.25;5041968;28;20032;-64
2024/01/15 10:15:10;;;;;;;7.23;1.80;;;;;;;0.73;100.00;100249.75;5043826;28;20730;-64
2024/01/15 10:17:38;;;;;;;7.68;1.70;;;;;;;0.80;100.00;100240.47;5038459;28;20575;-64
2024/01/15 10:20:09;;;;;;;6.47;1.97;;;;;;;0.78;100.00;100252.00;5042264;28;20029;-65
2024/01/15 10:22:36;;;;;;;11.83;2.30;;;;;;;0.66;100.00;100266.06;5036233;28;20083;-65
2024/01/15 10:25:01;;;;;;;5.10;1.77;;;;;;;0.56;100.00;100263.31;5036615;28;20052;-64
2024/01/15 10:27:27;;;;;;;7.67;2.10;;;;;;;0.42;100.00;100266.19;5030052;28;20160;-65
2024/01/15 10:29:53;;;;;;;9.37;2.10;;;;;;;0.30;100.00;100261.00;5042780;28;21408;-64
2024/01/15 10:32:19;;;;;;;5.77;1.90;;;;;;;0.27;100.00;100255.16;5036322;28;20498;-65
2024/01/15 10:34:44;;;;;;;6.90;1.50;;;;;;;0.25;100.00;100241.38;5030831;28;20040;-64
2024/01/15 10:37:09;;;;;;;2.27;1.20;;;;;;;0.24;100.00;100235.34;5032783;28;20065;-64
2024/01/15 10:39:36;;;;;;;3.73;1.40;;;;;;;0.16;100.00;100223.84;5034861;28;20037;-65
2024/01/15 10:42:02;;;;;;;3.97;1.20;;;;;;;0.15;100.00;100225.63;5032736;28;20033;-65
2024/01/15 10:44:29;;;;;;;3.23;1.30;;;;;;;0.14;100.00;100236.19;5035190;28;20018;-65
2024/01/15 10:46:56;;;;;;;7.00;1.70;;;;;;;0.13;100.00;100240.56;5046663;28;20025;-65
2024/01/15 10:49:24;;;;;;;6.73;2.20;;;;;;;0.19;100.00;100237.47;5049787;28;20033;-65
2024/01/15 10:51:52;;;;;;;6.17;2.27;;;;;;;0.34;100.00;100247.69;5038419;28;20491;-66
2024/01/15 10:54:19;;;;;;;7.87;3.13;;;;;;;0.47;100.00;100243.16;5047342;28;20101;-64
2024/01/15 10:56:46;;;;;;;6.30;3.20;;;;;;;0.52;100.00;100239.22;5038076;28;20048;-64
2024/01/15 10:59:13;;;;;;;11.13;3.27;;;;;;;0.62;100.00;100234.13;5044432;28;20024;-64
2024/01/15 11:01:39;;;;;;;7.00;3.27;;;;;;;0.72;100.00;100234.22;5046811;28;20025;-65
2024/01/15 11:04:05;;;;;;;7.53;3.20;;;;;;;0.85;100.00;100230.47;5043136;28;21298;-64
2024/01/15 11:06:43;;;;;;;5.97;3.30;;;;;;;0.95;100.00;100216.69;5036859;28;20139;-65
2024/01/15 11:09:08;;;;;;;8.17;3.60;;;;;;;1.06;100.00;100217.47;5035548;28;20033;-65
2024/01/15 11:11:39;;;;;;;9.50;4.20;;;;;;;1.21;100.00;100218.00;5039668;28;20033;-65